createdAt,value
2022-09-16T00:04:01.880Z,5.25
2022-09-16T00:09:03.492Z,5.43
2022-09-16T00:14:05.089Z,12.00
2022-09-16T00:19:07.081Z,5.45
2022-09-16T00:24:13.353Z,6.43
2022-09-16T00:29:14.981Z,6.20
2022-09-16T00:34:16.405Z,8.20
2022-09-16T00:39:17.925Z,5.35
2022-09-16T00:44:50.396Z,7.82
2022-09-16T00:49:55.709Z,7.05
2022-09-16T00:54:58.601Z,5.00
2022-09-16T01:00:01.224Z,4.15
2022-09-16T01:05:07.968Z,9.27
2022-09-16T01:10:09.741Z,7.25
2022-09-16T01:15:12.882Z,5.53
2022-09-16T01:20:45.597Z,7.05
2022-09-16T01:26:02.689Z,8.48
2022-09-16T01:31:33.944Z,9.05
2022-09-16T01:36:50.483Z,5.30
2022-09-16T01:41:57.895Z,3.88
2022-09-16T01:47:05.745Z,8.82
2022-09-16T01:52:19.075Z,8.75
2022-09-16T01:57:35.113Z,6.68
2022-09-16T02:02:40.584Z,5.45
2022-09-16T02:07:49.930Z,8.90
2022-09-16T02:12:54.380Z,6.72
2022-09-16T02:18:04.967Z,4.82
2022-09-16T02:23:16.031Z,6.85
2022-09-16T02:28:26.162Z,10.00
2022-09-16T02:33:35.700Z,7.68
2022-09-16T02:38:41.827Z,9.57
2022-09-16T02:43:45.697Z,5.70
2022-09-16T02:48:55.556Z,6.55
2022-09-16T02:54:10.387Z,7.17
2022-09-16T02:59:13.213Z,5.72
2022-09-16T03:04:17.346Z,6.63
2022-09-16T03:09:19.133Z,6.32
2022-09-16T03:14:32.569Z,5.10
2022-09-16T03:20:10.492Z,7.25
2022-09-16T03:25:34.048Z,4.05
2022-09-16T03:30:41.680Z,7.70
2022-09-16T03:35:47.467Z,4.32
2022-09-16T03:40:49.411Z,6.07
2022-09-16T03:45:51.466Z,8.18
2022-09-16T03:50:52.997Z,7.65
2022-09-16T03:55:54.426Z,7.30
2022-09-16T04:00:56.275Z,8.38
2022-09-16T04:05:57.862Z,9.38
2022-09-16T04:11:02.129Z,8.77
2022-09-16T04:16:04.941Z,3.70
2022-09-16T04:21:06.374Z,3.40
2022-09-16T04:26:08.398Z,6.53
2022-09-16T04:31:14.843Z,5.38
2022-09-16T04:36:19.433Z,4.25
2022-09-16T04:41:23.142Z,7.95
2022-09-16T04:46:26.719Z,6.80
2022-09-16T04:51:29.179Z,5.05
2022-09-16T04:56:32.589Z,5.20
2022-09-16T05:01:37.149Z,4.60
2022-09-16T05:06:41.610Z,4.65
2022-09-16T05:11:43.092Z,7.60
2022-09-16T05:16:45.360Z,5.55
2022-09-16T05:21:46.789Z,9.85
2022-09-16T05:26:48.168Z,7.60
2022-09-16T05:31:49.581Z,7.60
2022-09-16T05:36:54.009Z,8.48
2022-09-16T05:41:58.221Z,9.80
2022-09-16T05:46:59.709Z,6.88
2022-09-16T05:52:01.258Z,10.10
2022-09-16T05:57:07.232Z,12.63
2022-09-16T06:02:09.168Z,8.63
2022-09-16T06:07:10.684Z,5.63
2022-09-16T06:12:12.368Z,6.78
2022-09-16T06:17:13.881Z,8.68
2022-09-16T06:22:15.396Z,5.45
2022-09-16T06:27:17.549Z,4.53
2022-09-16T06:32:19.009Z,9.55
2022-09-16T06:37:21.150Z,8.18
2022-09-16T06:42:22.563Z,7.35
2022-09-16T06:47:24.145Z,9.30
2022-09-16T06:52:26.696Z,7.45
2022-09-16T06:57:28.170Z,6.65
2022-09-16T07:02:31.287Z,4.28
2022-09-16T07:07:33.875Z,5.97
2022-09-16T07:12:35.338Z,6.68
2022-09-16T07:17:36.791Z,9.75
2022-09-16T07:22:38.289Z,6.13
2022-09-16T07:27:39.861Z,6.57
2022-09-16T07:32:41.363Z,10.00
2022-09-16T07:37:42.954Z,10.70
2022-09-16T07:42:44.653Z,8.20
2022-09-16T07:47:50.770Z,6.85
2022-09-16T07:52:56.438Z,8.60
2022-09-16T07:57:57.843Z,9.23
2022-09-16T08:02:59.451Z,8.23
2022-09-16T08:08:01.194Z,10.20
2022-09-16T08:13:04.014Z,5.82
2022-09-16T08:18:05.562Z,7.45
2022-09-16T08:23:07.297Z,5.28
2022-09-16T08:28:16.046Z,7.95
2022-09-16T08:33:21.106Z,12.50
2022-09-16T08:38:22.523Z,8.05
2022-09-16T08:43:36.713Z,7.45
2022-09-16T08:48:57.715Z,7.25
2022-09-16T08:54:03.871Z,6.50
2022-09-16T08:59:11.891Z,7.13
2022-09-16T09:04:14.267Z,6.55
2022-09-16T09:09:39.680Z,9.57
2022-09-16T09:15:01.886Z,7.78
2022-09-16T09:20:29.973Z,6.53
2022-09-16T09:26:02.553Z,5.40
2022-09-16T09:31:39.684Z,10.20
2022-09-16T09:37:07.453Z,4.95
2022-09-16T09:42:21.232Z,8.88
2022-09-16T09:47:30.054Z,6.43
2022-09-16T09:52:44.498Z,6.88
2022-09-16T09:58:01.217Z,6.68
2022-09-16T10:03:20.634Z,6.07
2022-09-16T10:08:30.038Z,6.57
2022-09-16T10:13:31.843Z,6.97
2022-09-16T10:18:33.856Z,7.43
2022-09-16T10:23:36.326Z,12.98
2022-09-16T10:28:38.460Z,6.32
2022-09-16T10:33:44.770Z,6.38
2022-09-16T10:39:00.965Z,7.78
2022-09-16T10:44:26.216Z,7.50
2022-09-16T10:49:50.359Z,6.65
2022-09-16T10:54:53.038Z,5.78
2022-09-16T10:59:57.521Z,9.20
2022-09-16T11:05:31.585Z,5.30
2022-09-16T11:10:49.780Z,4.18
2022-09-16T11:15:56.889Z,7.47
2022-09-16T11:21:30.350Z,5.32
2022-09-16T11:26:58.642Z,5.63
2022-09-16T11:32:05.429Z,5.35
2022-09-16T11:37:43.071Z,4.43
2022-09-16T11:43:04.216Z,8.18
2022-09-16T11:48:17.886Z,3.92
2022-09-16T11:53:24.617Z,4.47
2022-09-16T11:58:56.974Z,4.68
2022-09-16T12:04:20.476Z,4.05
2022-09-16T12:09:36.691Z,5.22
2022-09-16T12:14:43.819Z,5.32
2022-09-16T12:19:58.018Z,2.47
2022-09-16T12:25:12.506Z,5.65
2022-09-16T12:30:26.414Z,5.20
2022-09-16T12:35:38.147Z,6.65
2022-09-16T12:41:12.386Z,6.20
2022-09-16T12:46:37.007Z,5.65
2022-09-16T12:51:50.405Z,3.97
2022-09-16T12:57:13.749Z,2.90
2022-09-16T13:02:22.658Z,5.57
2022-09-16T13:07:32.267Z,3.60
2022-09-16T13:12:41.493Z,2.03
2022-09-16T13:17:48.571Z,3.47
2022-09-16T13:22:55.907Z,5.28
2022-09-16T13:28:01.912Z,4.40
2022-09-16T13:33:09.489Z,3.90
2022-09-16T13:38:17.072Z,2.95
2022-09-16T13:43:48.129Z,2.08
2022-09-16T13:48:58.735Z,2.67
2022-09-16T13:54:03.569Z,2.78
2022-09-16T13:59:16.255Z,4.22
2022-09-16T14:04:28.435Z,3.42
2022-09-16T14:09:33.003Z,1.80
2022-09-16T14:14:47.098Z,1.83
2022-09-16T14:19:52.814Z,2.25
2022-09-16T14:25:05.984Z,3.22
2022-09-16T14:30:17.335Z,2.17
2022-09-16T14:35:23.268Z,2.00
2022-09-16T14:40:26.751Z,1.85
2022-09-16T14:45:30.469Z,4.05
2022-09-16T14:50:37.084Z,3.33
2022-09-16T14:55:48.738Z,4.72
2022-09-16T15:00:55.251Z,4.38
2022-09-16T15:06:04.967Z,1.98
2022-09-16T15:11:29.778Z,3.97
2022-09-16T15:16:42.574Z,2.22
2022-09-16T15:21:44.664Z,12.02
2022-09-16T15:26:47.326Z,2.60
2022-09-16T15:31:50.292Z,1.75
2022-09-16T15:36:53.769Z,1.08
2022-09-16T15:42:20.746Z,3.58
2022-09-16T15:47:29.402Z,3.50
2022-09-16T15:52:49.902Z,2.28
2022-09-16T16:03:01.963Z,2.25
2022-09-16T16:08:09.553Z,0.77
2022-09-16T16:13:11.418Z,3.47
2022-09-16T16:18:12.911Z,1.27
2022-09-16T16:23:14.975Z,1.00
2022-09-16T16:28:16.684Z,2.55
2022-09-16T16:33:18.170Z,1.13
2022-09-16T16:38:19.624Z,1.30
2022-09-16T16:43:21.099Z,3.17
2022-09-16T16:48:23.775Z,2.90
2022-09-16T16:53:25.345Z,1.50
2022-09-16T16:58:26.775Z,0.98
2022-09-16T17:03:30.195Z,0.70
2022-09-16T17:08:31.639Z,0.75
2022-09-16T17:13:33.501Z,1.40
2022-09-16T17:18:36.648Z,1.45
2022-09-16T17:23:38.478Z,0.90
2022-09-16T17:28:41.757Z,3.38
2022-09-16T17:33:44.199Z,0.28
2022-09-16T17:38:45.695Z,1.00
2022-09-16T17:43:49.374Z,0.20
2022-09-16T17:48:51.152Z,1.58
2022-09-16T17:53:52.602Z,1.55
2022-09-16T17:58:54.359Z,0.50
2022-09-16T18:03:56.645Z,0.98
2022-09-16T18:09:01.967Z,1.63
2022-09-16T18:14:06.743Z,0.13
2022-09-16T18:19:08.623Z,0.43
2022-09-16T18:24:13.010Z,0.17
2022-09-16T18:29:14.516Z,0.77
2022-09-16T18:34:17.061Z,0.22
2022-09-16T18:39:18.523Z,2.30
2022-09-16T18:44:23.782Z,0.45
2022-09-16T18:49:27.771Z,2.75
2022-09-16T18:54:29.737Z,1.80
2022-09-16T18:59:32.666Z,0.20
2022-09-16T19:04:38.837Z,0.63
2022-09-16T19:09:40.799Z,2.00
2022-09-16T19:14:42.411Z,0.95
2022-09-16T19:19:44.584Z,0.85
2022-09-16T19:24:46.095Z,1.00
2022-09-16T19:29:47.757Z,1.08
2022-09-16T19:34:49.956Z,1.10
2022-09-16T19:39:51.422Z,0.65
2022-09-16T19:44:53.329Z,1.08
2022-09-16T19:49:54.712Z,0.57
2022-09-16T19:54:56.144Z,2.45
2022-09-16T19:59:57.582Z,0.77
2022-09-16T20:04:58.969Z,1.20
2022-09-16T20:10:00.386Z,0.30
2022-09-16T20:15:02.085Z,0.30
2022-09-16T20:20:05.823Z,1.23
2022-09-16T20:25:22.583Z,0.95
2022-09-16T20:30:24.720Z,0.60
2022-09-16T20:35:26.207Z,3.72
2022-09-16T20:40:27.689Z,2.75
2022-09-16T20:45:29.181Z,1.60
2022-09-16T20:50:30.754Z,0.82
2022-09-16T20:55:32.560Z,0.82
2022-09-16T21:00:33.983Z,0.88
2022-09-16T21:05:35.394Z,0.32
2022-09-16T21:10:39.802Z,0.60
2022-09-16T21:15:41.208Z,0.98
2022-09-16T21:20:43.199Z,4.07
2022-09-16T21:25:44.608Z,2.05
2022-09-16T21:30:46.046Z,1.58
2022-09-16T21:35:51.733Z,0.82
2022-09-16T21:40:57.984Z,0.40
2022-09-16T21:46:00.471Z,0.98
2022-09-16T21:51:05.545Z,0.95
2022-09-16T21:56:08.851Z,0.90
2022-09-16T22:01:20.430Z,1.98
2022-09-16T22:06:22.703Z,1.60
2022-09-16T22:11:26.540Z,3.35
2022-09-16T22:16:30.957Z,5.05
2022-09-16T22:21:34.609Z,4.38
2022-09-16T22:26:36.819Z,6.65
2022-09-16T22:31:41.284Z,1.05
2022-09-16T22:36:42.894Z,3.00
2022-09-16T22:41:44.363Z,3.10
2022-09-16T22:46:48.083Z,3.10
2022-09-16T22:51:49.494Z,1.48
2022-09-16T22:56:50.939Z,1.52
2022-09-16T23:01:52.604Z,4.50
2022-09-16T23:06:54.377Z,2.78
2022-09-16T23:11:55.918Z,2.47
2022-09-16T23:16:57.319Z,2.13
2022-09-16T23:21:58.695Z,1.05
2022-09-16T23:27:00.103Z,2.67
2022-09-16T23:32:03.253Z,0.82
2022-09-16T23:37:04.750Z,4.35
2022-09-16T23:42:06.236Z,2.58
2022-09-16T23:47:07.613Z,0.50
2022-09-16T23:52:09.293Z,2.20
2022-09-16T23:57:10.698Z,4.40
